createdAt,value
2022-10-15T00:00:51.799Z,100.00
2022-10-15T00:03:18.357Z,100.00
2022-10-15T00:05:44.964Z,100.00
2022-10-15T00:08:12.069Z,100.00
2022-10-15T00:10:39.005Z,100.00
2022-10-15T00:13:06.361Z,100.00
2022-10-15T00:15:33.324Z,100.00
2022-10-15T00:17:59.809Z,100.00
2022-10-15T00:20:26.282Z,100.00
2022-10-15T00:22:52.709Z,100.00
2022-10-15T00:25:19.294Z,100.00
2022-10-15T00:27:45.751Z,100.00
2022-10-15T00:30:12.701Z,100.00
2022-10-15T00:32:39.583Z,100.00
2022-10-15T00:35:06.875Z,100.00
2022-10-15T00:37:33.329Z,100.00
2022-10-15T00:39:59.900Z,100.00
2022-10-15T00:42:26.562Z,100.00
2022-10-15T00:44:57.275Z,100.00
2022-10-15T00:47:37.554Z,100.00
2022-10-15T00:50:33.993Z,100.00
2022-10-15T00:53:09.630Z,100.00
2022-10-15T00:55:42.555Z,100.00
2022-10-15T00:58:16.670Z,100.00
2022-10-15T01:00:43.894Z,100.00
2022-10-15T01:03:12.730Z,100.00
2022-10-15T01:05:40.291Z,100.00
2022-10-15T01:08:06.813Z,100.00
2022-10-15T01:10:50.865Z,100.00
2022-10-15T01:13:32.250Z,100.00
2022-10-15T01:16:35.452Z,100.00
2022-10-15T01:19:07.412Z,100.00
2022-10-15T01:22:28.983Z,100.00
2022-10-15T01:25:12.252Z,100.00
2022-10-15T01:27:43.658Z,100.00
2022-10-15T01:30:30.833Z,100.00
2022-10-15T01:33:09.271Z,100.00
2022-10-15T01:36:00.237Z,100.00
2022-10-15T01:38:44.130Z,100.00
2022-10-15T01:41:25.101Z,100.00
2022-10-15T01:43:59.735Z,100.00
2022-10-15T01:46:47.521Z,100.00
2022-10-15T01:49:21.312Z,100.00
2022-10-15T01:51:50.612Z,100.00
2022-10-15T01:54:19.889Z,100.00
2022-10-15T01:56:51.414Z,100.00
2022-10-15T01:59:22.127Z,100.00
2022-10-15T02:01:48.568Z,100.00
2022-10-15T02:04:29.574Z,100.00
2022-10-15T02:07:14.057Z,100.00
2022-10-15T02:10:00.822Z,100.00
2022-10-15T02:12:56.922Z,100.00
2022-10-15T02:15:36.483Z,100.00
2022-10-15T02:18:14.856Z,100.00
2022-10-15T02:20:56.322Z,100.00
2022-10-15T02:23:29.644Z,100.00
2022-10-15T02:25:58.490Z,100.00
2022-10-15T02:28:27.825Z,100.00
2022-10-15T02:30:56.137Z,100.00
2022-10-15T02:33:25.002Z,100.00
2022-10-15T02:35:52.750Z,100.00
2022-10-15T02:38:24.161Z,100.00
2022-10-15T02:40:51.659Z,100.00
2022-10-15T02:43:20.859Z,100.00
2022-10-15T02:45:48.754Z,100.00
2022-10-15T02:48:15.865Z,100.00
2022-10-15T02:50:42.654Z,100.00
2022-10-15T02:53:09.149Z,100.00
2022-10-15T02:55:35.798Z,100.00
2022-10-15T02:58:02.307Z,100.00
2022-10-15T03:00:29.382Z,100.00
2022-10-15T03:02:56.322Z,100.00
2022-10-15T03:05:23.070Z,100.00
2022-10-15T03:07:49.606Z,100.00
2022-10-15T03:10:16.295Z,100.00
2022-10-15T03:12:42.750Z,100.00
2022-10-15T03:15:09.457Z,100.00
2022-10-15T03:17:36.017Z,100.00
2022-10-15T03:20:02.518Z,100.00
2022-10-15T03:22:28.962Z,100.00
2022-10-15T03:24:55.510Z,100.00
2022-10-15T03:27:22.136Z,100.00
2022-10-15T03:29:48.797Z,100.00
2022-10-15T03:32:15.320Z,100.00
2022-10-15T03:34:41.869Z,100.00
2022-10-15T03:37:08.313Z,100.00
2022-10-15T03:39:34.801Z,100.00
2022-10-15T03:42:01.307Z,100.00
2022-10-15T03:44:27.794Z,100.00
2022-10-15T03:46:54.244Z,100.00
2022-10-15T03:49:20.804Z,100.00
2022-10-15T03:51:47.249Z,100.00
2022-10-15T03:54:13.737Z,100.00
2022-10-15T03:56:40.200Z,100.00
2022-10-15T03:59:06.638Z,100.00
2022-10-15T04:01:33.193Z,100.00
2022-10-15T04:03:59.662Z,100.00
2022-10-15T04:06:26.219Z,100.00
2022-10-15T04:11:24.056Z,100.00
2022-10-15T04:13:50.704Z,100.00
2022-10-15T04:16:17.859Z,100.00
2022-10-15T04:18:44.345Z,100.00
2022-10-15T04:21:11.559Z,100.00
2022-10-15T04:23:38.018Z,100.00
2022-10-15T04:26:04.736Z,100.00
2022-10-15T04:28:31.272Z,100.00
2022-10-15T04:31:01.830Z,100.00
2022-10-15T04:33:28.539Z,100.00
2022-10-15T04:36:00.334Z,100.00
2022-10-15T04:38:27.018Z,100.00
2022-10-15T04:41:05.621Z,100.00
2022-10-15T04:43:32.966Z,100.00
2022-10-15T04:46:01.034Z,100.00
2022-10-15T04:48:32.123Z,100.00
2022-10-15T04:51:11.723Z,100.00
2022-10-15T04:53:38.671Z,100.00
2022-10-15T04:56:08.737Z,100.00
2022-10-15T04:58:36.187Z,100.00
2022-10-15T05:01:04.854Z,100.00
2022-10-15T05:06:15.714Z,100.00
2022-10-15T05:08:42.219Z,100.00
2022-10-15T05:11:14.418Z,100.00
2022-10-15T05:13:41.006Z,100.00
2022-10-15T05:16:15.282Z,100.00
2022-10-15T05:18:43.689Z,100.00
2022-10-15T05:21:10.818Z,100.00
2022-10-15T05:23:38.286Z,100.00
2022-10-15T05:26:07.415Z,100.00
2022-10-15T05:28:34.556Z,100.00
2022-10-15T05:31:18.645Z,100.00
2022-10-15T05:33:45.876Z,100.00
2022-10-15T05:36:19.424Z,100.00
2022-10-15T05:38:51.071Z,100.00
2022-10-15T05:41:17.637Z,100.00
2022-10-15T05:43:47.451Z,100.00
2022-10-15T05:46:14.018Z,100.00
2022-10-15T05:48:40.760Z,100.00
2022-10-15T05:51:11.027Z,100.00
2022-10-15T05:53:38.038Z,100.00
2022-10-15T05:56:05.623Z,100.00
2022-10-15T05:58:37.191Z,100.00
2022-10-15T06:01:07.179Z,100.00
2022-10-15T06:03:34.221Z,100.00
2022-10-15T06:06:00.694Z,100.00
2022-10-15T06:08:29.201Z,100.00
2022-10-15T06:10:56.604Z,100.00
2022-10-15T06:13:23.574Z,100.00
2022-10-15T06:15:50.094Z,100.00
2022-10-15T06:18:16.603Z,100.00
2022-10-15T06:20:44.333Z,100.00
2022-10-15T06:23:12.066Z,100.00
2022-10-15T06:25:38.648Z,100.00
2022-10-15T06:28:07.078Z,100.00
2022-10-15T06:30:33.644Z,100.00
2022-10-15T06:33:00.229Z,100.00
2022-10-15T06:35:30.272Z,100.00
2022-10-15T06:38:02.885Z,100.00
2022-10-15T06:40:30.345Z,100.00
2022-10-15T06:43:04.147Z,100.00
2022-10-15T06:45:30.650Z,100.00
2022-10-15T06:47:57.219Z,100.00
2022-10-15T06:50:23.747Z,100.00
2022-10-15T06:52:50.241Z,100.00
2022-10-15T06:55:16.776Z,100.00
2022-10-15T06:57:43.234Z,100.00
2022-10-15T07:00:10.199Z,100.00
2022-10-15T07:02:36.690Z,100.00
2022-10-15T07:05:03.315Z,100.00
2022-10-15T07:07:29.934Z,100.00
2022-10-15T07:09:56.600Z,100.00
2022-10-15T07:12:23.320Z,100.00
2022-10-15T07:14:49.975Z,100.00
2022-10-15T07:17:16.606Z,100.00
2022-10-15T07:19:44.107Z,100.00
2022-10-15T07:22:11.007Z,100.00
2022-10-15T07:24:37.497Z,100.00
2022-10-15T07:27:08.165Z,100.00
2022-10-15T07:29:44.832Z,100.00
2022-10-15T07:32:11.295Z,100.00
2022-10-15T07:34:37.768Z,100.00
2022-10-15T07:37:04.355Z,100.00
2022-10-15T07:39:30.827Z,100.00
2022-10-15T07:41:57.291Z,100.00
2022-10-15T07:44:23.753Z,100.00
2022-10-15T07:46:50.239Z,100.00
2022-10-15T07:49:16.670Z,100.00
2022-10-15T07:51:43.307Z,100.00
2022-10-15T07:54:09.813Z,100.00
2022-10-15T07:56:36.326Z,100.00
2022-10-15T07:59:02.824Z,100.00
2022-10-15T08:01:29.339Z,100.00
2022-10-15T08:03:55.812Z,100.00
2022-10-15T08:06:22.305Z,100.00
2022-10-15T08:08:48.885Z,100.00
2022-10-15T08:11:17.030Z,100.00
2022-10-15T08:13:44.601Z,100.00
2022-10-15T08:16:13.384Z,100.00
2022-10-15T08:18:40.309Z,100.00
2022-10-15T08:21:08.032Z,100.00
2022-10-15T08:23:35.764Z,100.00
2022-10-15T08:26:02.502Z,100.00
2022-10-15T08:28:30.011Z,100.00
2022-10-15T08:31:04.387Z,100.00
2022-10-15T08:33:33.574Z,100.00
2022-10-15T08:36:00.062Z,100.00
2022-10-15T08:38:27.312Z,100.00
2022-10-15T08:40:58.846Z,100.00
2022-10-15T08:43:30.573Z,100.00
2022-10-15T08:46:01.583Z,100.00
2022-10-15T08:48:34.050Z,100.00
2022-10-15T08:51:13.665Z,100.00
2022-10-15T08:53:49.559Z,100.00
2022-10-15T08:56:22.100Z,100.00
2022-10-15T08:59:09.194Z,100.00
2022-10-15T09:01:45.791Z,100.00
2022-10-15T09:04:17.970Z,100.00
2022-10-15T09:06:44.766Z,100.00
2022-10-15T09:09:20.066Z,100.00
2022-10-15T09:11:49.239Z,100.00
2022-10-15T09:14:31.708Z,100.00
2022-10-15T09:17:04.663Z,100.00
2022-10-15T09:19:35.120Z,100.00
2022-10-15T09:22:03.102Z,100.00
2022-10-15T09:24:30.435Z,100.00
2022-10-15T09:27:14.776Z,100.00
2022-10-15T09:29:48.005Z,100.00
2022-10-15T09:32:31.593Z,100.00
2022-10-15T09:35:01.723Z,100.00
2022-10-15T09:37:36.503Z,100.00
2022-10-15T09:40:05.677Z,100.00
2022-10-15T09:42:36.131Z,100.00
2022-10-15T09:45:06.526Z,100.00
2022-10-15T09:47:35.246Z,100.00
2022-10-15T09:50:05.293Z,100.00
2022-10-15T09:53:00.483Z,100.00
2022-10-15T09:55:26.866Z,100.00
2022-10-15T09:57:56.489Z,100.00
2022-10-15T10:00:22.972Z,100.00
2022-10-15T10:03:07.452Z,100.00
2022-10-15T10:05:36.976Z,100.00
2022-10-15T10:08:18.814Z,100.00
2022-10-15T10:10:53.563Z,100.00
2022-10-15T10:13:26.210Z,100.00
2022-10-15T10:15:58.387Z,100.00
2022-10-15T10:18:26.542Z,100.00
2022-10-15T10:21:05.872Z,100.00
2022-10-15T10:23:39.311Z,100.00
2022-10-15T10:26:07.750Z,100.00
2022-10-15T10:28:57.110Z,100.00
2022-10-15T10:31:42.367Z,100.00
2022-10-15T10:34:16.026Z,100.00
2022-10-15T10:36:44.193Z,100.00
2022-10-15T10:39:10.716Z,100.00
2022-10-15T10:42:07.027Z,100.00
2022-10-15T10:44:35.773Z,100.00
2022-10-15T10:47:08.020Z,100.00
2022-10-15T10:49:37.752Z,100.00
2022-10-15T10:52:05.302Z,100.00
2022-10-15T10:54:33.196Z,100.00
2022-10-15T10:57:01.572Z,100.00
2022-10-15T10:59:37.926Z,100.00
2022-10-15T11:02:11.122Z,100.00
2022-10-15T11:04:39.292Z,100.00
2022-10-15T11:07:14.642Z,100.00
2022-10-15T11:09:55.394Z,100.00
2022-10-15T11:12:34.795Z,100.00
2022-10-15T11:15:32.547Z,100.00
2022-10-15T11:18:32.352Z,100.00
2022-10-15T11:21:14.276Z,100.00
2022-10-15T11:24:00.315Z,100.00
2022-10-15T11:26:52.456Z,100.00
2022-10-15T11:29:42.103Z,100.00
2022-10-15T11:32:25.306Z,100.00
2022-10-15T11:35:20.231Z,100.00
2022-10-15T11:38:25.385Z,100.00
2022-10-15T11:41:04.121Z,100.00
2022-10-15T11:44:00.841Z,100.00
2022-10-15T11:46:55.019Z,100.00
2022-10-15T11:52:20.148Z,100.00
2022-10-15T11:55:25.274Z,100.00
2022-10-15T11:57:57.846Z,100.00
2022-10-15T12:00:35.157Z,100.00
2022-10-15T12:03:22.449Z,100.00
2022-10-15T12:05:58.795Z,100.00
2022-10-15T12:08:31.764Z,100.00
2022-10-15T12:11:25.033Z,100.00
2022-10-15T12:14:02.017Z,100.00
2022-10-15T12:16:41.156Z,100.00
2022-10-15T12:19:17.032Z,100.00
2022-10-15T12:22:06.578Z,100.00
2022-10-15T12:24:54.413Z,100.00
2022-10-15T12:27:30.283Z,100.00
2022-10-15T12:30:02.512Z,100.00
2022-10-15T12:32:39.696Z,100.00
2022-10-15T12:37:52.412Z,100.00
2022-10-15T12:40:31.530Z,100.00
2022-10-15T12:43:02.703Z,100.00
2022-10-15T12:45:40.496Z,100.00
2022-10-15T12:48:16.092Z,100.00
2022-10-15T12:50:43.349Z,100.00
2022-10-15T12:53:34.453Z,100.00
2022-10-15T12:56:19.146Z,100.00
2022-10-15T12:58:48.182Z,100.00
2022-10-15T13:01:14.680Z,100.00
2022-10-15T13:03:52.549Z,100.00
2022-10-15T13:06:22.354Z,100.00
2022-10-15T13:09:06.468Z,100.00
2022-10-15T13:11:38.353Z,100.00
2022-10-15T13:14:24.105Z,100.00
2022-10-15T13:16:50.689Z,100.00
2022-10-15T13:19:23.840Z,100.00
2022-10-15T13:21:57.720Z,100.00
2022-10-15T13:24:27.397Z,100.00
2022-10-15T13:26:56.080Z,100.00
2022-10-15T13:29:26.574Z,100.00
2022-10-15T13:31:56.385Z,100.00
2022-10-15T13:34:27.492Z,100.00
2022-10-15T13:36:56.566Z,100.00
2022-10-15T13:39:41.717Z,100.00
2022-10-15T13:42:15.506Z,100.00
2022-10-15T13:44:43.307Z,99.12
2022-10-15T13:47:31.637Z,87.09
2022-10-15T13:50:27.499Z,87.62
2022-10-15T13:53:18.060Z,83.45
2022-10-15T13:55:56.709Z,82.18
2022-10-15T13:58:27.866Z,80.13
2022-10-15T14:01:12.274Z,80.58
2022-10-15T14:03:41.625Z,80.82
2022-10-15T14:06:16.686Z,78.50
2022-10-15T14:08:43.308Z,76.82
2022-10-15T14:11:12.915Z,77.49
2022-10-15T14:13:51.550Z,71.55
2022-10-15T14:16:29.803Z,70.75
2022-10-15T14:19:20.646Z,70.53
2022-10-15T14:21:48.731Z,69.58
2022-10-15T14:24:19.359Z,72.13
2022-10-15T14:26:46.888Z,74.00
2022-10-15T14:29:22.283Z,72.98
2022-10-15T14:31:49.700Z,76.14
2022-10-15T14:34:29.630Z,77.74
2022-10-15T14:36:56.277Z,79.15
2022-10-15T14:39:31.784Z,80.38
2022-10-15T14:42:05.458Z,82.45
2022-10-15T14:44:47.551Z,82.36
2022-10-15T14:47:27.534Z,82.33
2022-10-15T14:49:59.756Z,83.81
2022-10-15T14:52:28.886Z,84.22
2022-10-15T14:55:16.239Z,85.14
2022-10-15T14:57:45.259Z,84.09
2022-10-15T15:00:27.826Z,84.40
2022-10-15T15:02:59.745Z,84.13
2022-10-15T15:05:27.918Z,85.23
2022-10-15T15:07:56.869Z,86.37
2022-10-15T15:10:25.860Z,86.67
2022-10-15T15:12:56.858Z,87.10
2022-10-15T15:15:24.925Z,87.63
2022-10-15T15:17:51.775Z,88.77
2022-10-15T15:20:20.414Z,87.36
2022-10-15T15:22:50.637Z,87.85
2022-10-15T15:25:20.741Z,84.91
2022-10-15T15:27:47.288Z,85.99
2022-10-15T15:30:20.762Z,86.15
2022-10-15T15:32:48.175Z,86.63
2022-10-15T15:35:51.107Z,88.43
2022-10-15T15:38:19.756Z,87.77
2022-10-15T15:40:46.835Z,88.12
2022-10-15T15:43:15.618Z,89.16
2022-10-15T15:45:42.502Z,88.25
2022-10-15T15:48:09.107Z,83.86
2022-10-15T15:50:36.662Z,84.50
2022-10-15T15:53:03.518Z,83.52
2022-10-15T15:55:30.202Z,83.83
2022-10-15T15:57:56.703Z,83.73
2022-10-15T16:00:25.273Z,82.25
2022-10-15T16:02:54.116Z,83.92
2022-10-15T16:05:24.546Z,83.54
2022-10-15T16:07:51.076Z,84.33
2022-10-15T16:10:17.865Z,85.08
2022-10-15T16:12:44.571Z,87.05
2022-10-15T16:15:14.402Z,87.35
2022-10-15T16:17:41.900Z,89.75
2022-10-15T16:20:09.197Z,91.36
2022-10-15T16:22:35.766Z,93.39
2022-10-15T16:25:02.224Z,94.22
2022-10-15T16:27:29.029Z,93.55
2022-10-15T16:29:55.542Z,91.21
2022-10-15T16:32:21.997Z,89.53
2022-10-15T16:34:48.508Z,89.31
2022-10-15T16:37:14.981Z,88.95
2022-10-15T16:39:41.499Z,89.00
2022-10-15T16:42:09.377Z,89.24
2022-10-15T16:44:36.098Z,89.58
2022-10-15T16:47:02.604Z,89.36
2022-10-15T16:49:29.065Z,91.43
2022-10-15T16:51:55.539Z,92.57
2022-10-15T16:54:22.117Z,92.96
2022-10-15T16:56:52.698Z,93.85
2022-10-15T16:59:20.385Z,94.34
2022-10-15T17:01:47.467Z,95.71
2022-10-15T17:04:14.153Z,96.89
2022-10-15T17:06:40.694Z,97.35
2022-10-15T17:09:07.232Z,97.41
2022-10-15T17:11:37.420Z,97.52
2022-10-15T17:14:09.548Z,98.18
2022-10-15T17:16:41.448Z,98.90
2022-10-15T17:19:09.437Z,99.15
2022-10-15T17:21:36.751Z,98.80
2022-10-15T17:24:06.381Z,98.45
2022-10-15T17:26:40.327Z,98.16
2022-10-15T17:29:10.259Z,98.26
2022-10-15T17:31:37.106Z,98.38
2022-10-15T17:34:07.159Z,98.82
2022-10-15T17:36:40.627Z,98.77
2022-10-15T17:39:07.079Z,98.52
2022-10-15T17:41:33.542Z,99.10
2022-10-15T17:44:00.052Z,99.35
2022-10-15T17:46:29.190Z,99.77
2022-10-15T17:48:58.220Z,100.00
2022-10-15T17:51:32.611Z,100.00
2022-10-15T17:54:00.368Z,100.00
2022-10-15T17:56:30.290Z,100.00
2022-10-15T17:59:01.522Z,100.00
2022-10-15T18:01:56.888Z,100.00
2022-10-15T18:04:20.556Z,100.00
2022-10-15T18:06:47.170Z,100.00
2022-10-15T18:09:13.665Z,100.00
2022-10-15T18:11:40.486Z,100.00
2022-10-15T18:14:07.255Z,100.00
2022-10-15T18:16:33.854Z,100.00
2022-10-15T18:19:00.341Z,100.00
2022-10-15T18:21:28.468Z,100.00
2022-10-15T18:23:58.491Z,100.00
2022-10-15T18:26:25.048Z,100.00
2022-10-15T18:28:53.640Z,99.52
2022-10-15T18:31:21.340Z,100.00
2022-10-15T18:33:52.021Z,100.00
2022-10-15T18:36:30.597Z,100.00
2022-10-15T18:38:58.211Z,100.00
2022-10-15T18:41:28.106Z,100.00
2022-10-15T18:44:06.451Z,100.00
2022-10-15T18:46:34.457Z,100.00
2022-10-15T18:49:01.857Z,100.00
2022-10-15T18:51:29.294Z,100.00
2022-10-15T18:53:55.858Z,100.00
2022-10-15T18:56:23.089Z,100.00
2022-10-15T18:58:50.064Z,100.00
2022-10-15T19:01:37.234Z,100.00
2022-10-15T19:04:07.325Z,100.00
2022-10-15T19:06:37.013Z,100.00
2022-10-15T19:09:06.867Z,100.00
2022-10-15T19:11:34.967Z,100.00
2022-10-15T19:14:01.629Z,100.00
2022-10-15T19:16:28.980Z,100.00
2022-10-15T19:18:55.442Z,100.00
2022-10-15T19:21:22.140Z,100.00
2022-10-15T19:23:48.639Z,100.00
2022-10-15T19:26:15.729Z,100.00
2022-10-15T19:28:42.521Z,100.00
2022-10-15T19:31:13.042Z,100.00
2022-10-15T19:33:39.595Z,100.00
2022-10-15T19:36:06.448Z,100.00
2022-10-15T19:38:33.641Z,100.00
2022-10-15T19:41:03.983Z,100.00
2022-10-15T19:43:30.656Z,100.00
2022-10-15T19:46:03.052Z,100.00
2022-10-15T19:48:29.747Z,100.00
2022-10-15T19:50:56.278Z,100.00
2022-10-15T19:53:22.767Z,100.00
2022-10-15T19:55:58.254Z,100.00
2022-10-15T19:58:25.038Z,99.84
2022-10-15T20:00:53.025Z,99.19
2022-10-15T20:03:20.366Z,99.01
2022-10-15T20:05:47.271Z,98.61
2022-10-15T20:08:14.840Z,98.41
2022-10-15T20:10:42.870Z,98.73
2022-10-15T20:13:09.413Z,98.61
2022-10-15T20:15:47.818Z,98.70
2022-10-15T20:18:15.371Z,98.46
2022-10-15T20:20:43.796Z,99.08
2022-10-15T20:23:10.869Z,99.08
2022-10-15T20:25:37.870Z,99.72
2022-10-15T20:28:04.433Z,100.00
2022-10-15T20:30:31.531Z,100.00
2022-10-15T20:32:58.003Z,100.00
2022-10-15T20:35:24.490Z,100.00
2022-10-15T20:37:50.967Z,100.00
2022-10-15T20:40:17.491Z,100.00
2022-10-15T20:42:43.951Z,99.79
2022-10-15T20:45:14.595Z,99.48
2022-10-15T20:47:45.026Z,99.20
2022-10-15T20:50:16.583Z,99.65
2022-10-15T20:52:43.222Z,99.42
2022-10-15T20:55:10.865Z,99.68
2022-10-15T20:57:38.024Z,99.87
2022-10-15T21:00:07.236Z,100.00
2022-10-15T21:02:33.855Z,100.00
2022-10-15T21:05:00.382Z,100.00
2022-10-15T21:07:27.122Z,100.00
2022-10-15T21:09:54.049Z,100.00
2022-10-15T21:12:20.646Z,100.00
2022-10-15T21:14:47.186Z,100.00
2022-10-15T21:17:13.763Z,100.00
2022-10-15T21:19:40.238Z,100.00
2022-10-15T21:22:06.796Z,99.89
2022-10-15T21:24:36.581Z,99.78
2022-10-15T21:27:03.101Z,98.78
2022-10-15T21:29:29.559Z,98.12
2022-10-15T21:31:56.116Z,96.66
2022-10-15T21:34:27.409Z,96.77
2022-10-15T21:36:55.288Z,96.28
2022-10-15T21:39:21.908Z,96.46
2022-10-15T21:41:48.437Z,96.10
2022-10-15T21:44:15.199Z,96.75
2022-10-15T21:46:42.495Z,96.68
2022-10-15T21:49:10.129Z,96.14
2022-10-15T21:51:37.959Z,95.95
2022-10-15T21:54:05.964Z,96.42
2022-10-15T21:56:32.820Z,95.86
2022-10-15T21:59:00.096Z,96.26
2022-10-15T22:01:37.912Z,97.46
2022-10-15T22:04:09.809Z,98.45
2022-10-15T22:06:40.123Z,99.41
2022-10-15T22:09:08.749Z,98.44
2022-10-15T22:11:41.395Z,98.53
2022-10-15T22:14:11.389Z,97.94
2022-10-15T22:16:39.406Z,97.93
2022-10-15T22:19:07.759Z,97.62
2022-10-15T22:21:36.538Z,96.56
2022-10-15T22:24:06.475Z,95.92
2022-10-15T22:26:36.536Z,95.11
2022-10-15T22:29:05.354Z,93.92
2022-10-15T22:31:32.928Z,92.94
2022-10-15T22:33:59.913Z,91.80
2022-10-15T22:36:28.606Z,90.37
2022-10-15T22:38:57.428Z,89.91
2022-10-15T22:41:24.342Z,90.53
2022-10-15T22:43:51.359Z,89.72
2022-10-15T22:46:17.893Z,90.31
2022-10-15T22:48:44.469Z,89.94
2022-10-15T22:51:13.625Z,90.17
2022-10-15T22:53:41.244Z,90.33
2022-10-15T22:56:12.298Z,91.08
2022-10-15T22:58:38.875Z,90.90
2022-10-15T23:01:20.613Z,91.43
2022-10-15T23:03:49.318Z,92.93
2022-10-15T23:06:16.637Z,93.76
2022-10-15T23:08:43.778Z,94.57
2022-10-15T23:11:11.819Z,94.91
2022-10-15T23:13:39.843Z,95.23
2022-10-15T23:16:13.697Z,95.59
2022-10-15T23:18:40.890Z,96.68
2022-10-15T23:21:12.995Z,95.95
2022-10-15T23:23:39.556Z,96.94
2022-10-15T23:26:06.262Z,96.82
2022-10-15T23:28:32.753Z,96.93
2022-10-15T23:30:59.324Z,97.51
2022-10-15T23:33:25.870Z,97.88
2022-10-15T23:36:04.467Z,98.64
2022-10-15T23:38:31.198Z,98.97
2022-10-15T23:41:02.534Z,100.00
2022-10-15T23:43:29.174Z,100.00
2022-10-15T23:45:55.716Z,100.00
2022-10-15T23:48:22.569Z,100.00
2022-10-15T23:50:49.435Z,100.00
2022-10-15T23:53:16.617Z,100.00
2022-10-15T23:55:43.184Z,100.00
2022-10-15T23:58:10.145Z,100.00
